sensor_id;sensor_type;location;lat;lon;timestamp;pressure;altitude;pressure_sealevel;temperature;humidity
4022;BME280;2025;48.260;16.432;2022-12-18T08:56:09;101826.34;;;-2.86;100.00
4022;BME280;2025;48.260;16.432;2022-12-18T08:58:37;101833.03;;;-2.97;100.00
4022;BME280;2025;48.260;16.432;2022-12-18T09:01:06;101830.78;;;-2.66;100.00
4022;BME280;2025;48.260;16.432;2022-12-18T09:03:34;101839.56;;;-2.73;100.00
4022;BME280;2025;48.260;16.432;2022-12-18T09:06:01;101833.41;;;-2.47;100.00
4022;BME280;2025;48.260;16.432;2022-12-18T09:08:28;101837.50;;;-2.85;100.00
4022;BME280;2025;48.260;16.432;2022-12-18T09:10:56;101838.97;;;-2.70;100.00
4022;BME280;2025;48.260;16.432;2022-12-18T09:13:24;101841.78;;;-2.31;100.00
4022;BME280;2025;48.260;16.432;2022-12-18T09:15:53;101840.63;;;-2.16;100.00
4022;BME280;2025;48.260;16.432;2022-12-18T09:18:21;101850.13;;;-2.15;100.00
4022;BME280;2025;48.260;16.432;2022-12-18T09:20:49;101850.59;;;-2.19;100.00
4022;BME280;2025;48.260;16.432;2022-12-18T09:23:17;101856.38;;;-2.21;100.00
4022;BME280;2025;48.260;16.432;2022-12-18T09:25:44;101854.69;;;-2.21;100.00
4022;BME280;2025;48.260;16.432;2022-12-18T09:28:17;101855.25;;;-2.15;100.00
4022;BME280;2025;48.260;16.432;2022-12-18T09:30:47;101855.88;;;-2.17;100.00
4022;BME280;2025;48.260;16.432;2022-12-18T09:33:14;101862.38;;;-1.94;100.00
4022;BME280;2025;48.260;16.432;2022-12-18T09:35:41;101860.00;;;-1.82;100.00
4022;BME280;2025;48.260;16.432;2022-12-18T09:38:27;101851.75;;;-1.88;100.00
4022;BME280;2025;48.260;16.432;2022-12-18T09:40:58;101851.19;;;-1.94;100.00
4022;BME280;2025;48.260;16.432;2022-12-18T09:43:29;101844.94;;;-1.87;100.00
4022;BME280;2025;48.260;16.432;2022-12-18T09:46:05;101852.16;;;-2.02;100.00
4022;BME280;2025;48.260;16.432;2022-12-18T09:48:35;101851.28;;;-2.30;100.00
4022;BME280;2025;48.260;16.432;2022-12-18T09:51:10;101852.38;;;-2.37;100.00
4022;BME280;2025;48.260;16.432;2022-12-18T09:53:42;101837.94;;;-2.45;100.00
4022;BME280;2025;48.260;16.432;2022-12-18T09:56:15;101834.75;;;-2.42;100.00
4022;BME280;2025;48.260;16.432;2022-12-18T09:58:47;101825.88;;;-2.27;100.00
4022;BME280;2025;48.260;16.432;2022-12-18T10:01:22;101839.59;;;-2.45;100.00
4022;BME280;2025;48.260;16.432;2022-12-18T10:03:49;101843.66;;;-2.20;100.00
4022;BME280;2025;48.260;16.432;2022-12-18T10:06:21;101836.72;;;-2.48;100.00
4022;BME280;2025;48.260;16.432;2022-12-18T10:08:54;101827.75;;;-2.35;100.00
4022;BME280;2025;48.260;16.432;2022-12-18T10:11:32;101826.69;;;-2.37;100.00
4022;BME280;2025;48.260;16.432;2022-12-18T10:14:06;101820.22;;;-2.42;100.00
4022;BME280;2025;48.260;16.432;2022-12-18T10:16:45;101822.53;;;-2.45;100.00
4022;BME280;2025;48.260;16.432;2022-12-18T10:19:25;101824.38;;;-2.06;100.00
4022;BME280;2025;48.260;16.432;2022-12-18T10:21:59;101830.69;;;-2.03;100.00
4022;BME280;2025;48.260;16.432;2022-12-18T10:24:33;101825.47;;;-2.13;100.00
4022;BME280;2025;48.260;16.432;2022-12-18T10:27:12;101818.41;;;-2.15;100.00
4022;BME280;2025;48.260;16.432;2022-12-18T10:29:41;101825.34;;;-1.96;100.00
4022;BME280;2025;48.260;16.432;2022-12-18T10:32:14;101826.03;;;-2.07;100.00
4022;BME280;2025;48.260;16.432;2022-12-18T10:34:45;101823.13;;;-2.20;100.00
4022;BME280;2025;48.260;16.432;2022-12-18T10:37:15;101815.03;;;-2.33;100.00
4022;BME280;2025;48.260;16.432;2022-12-18T10:39:44;101815.53;;;-2.37;100.00
4022;BME280;2025;48.260;16.432;2022-12-18T10:42:11;101822.75;;;-2.33;100.00
4022;BME280;2025;48.260;16.432;2022-12-18T10:44:39;101819.97;;;-2.26;100.00
4022;BME280;2025;48.260;16.432;2022-12-18T10:47:13;101819.69;;;-2.29;100.00
4022;BME280;2025;48.260;16.432;2022-12-18T10:49:50;101815.41;;;-2.20;100.00
4022;BME280;2025;48.260;16.432;2022-12-18T10:52:19;101810.34;;;-2.29;100.00
4022;BME280;2025;48.260;16.432;2022-12-18T10:54:49;101807.19;;;-2.35;100.00
4022;BME280;2025;48.260;16.432;2022-12-18T10:57:30;101805.00;;;-2.03;100.00
4022;BME280;2025;48.260;16.432;2022-12-18T11:00:00;101801.88;;;-2.28;100.00
4022;BME280;2025;48.260;16.432;2022-12-18T11:02:34;101802.25;;;-2.42;100.00
4022;BME280;2025;48.260;16.432;2022-12-18T11:05:02;101800.59;;;-2.41;100.00
4022;BME280;2025;48.260;16.432;2022-12-18T11:07:47;101803.94;;;-2.42;100.00
4022;BME280;2025;48.260;16.432;2022-12-18T11:10:16;101803.72;;;-2.35;100.00
4022;BME280;2025;48.260;16.432;2022-12-18T11:12:44;101802.44;;;-2.21;100.00
4022;BME280;2025;48.260;16.432;2022-12-18T11:15:15;101793.97;;;-2.20;100.00
4022;BME280;2025;48.260;16.432;2022-12-18T11:17:47;101792.44;;;-2.18;100.00
4022;BME280;2025;48.260;16.432;2022-12-18T11:20:30;101796.13;;;-2.06;100.00
4022;BME280;2025;48.260;16.432;2022-12-18T11:22:59;101800.19;;;-2.27;100.00
4022;BME280;2025;48.260;16.432;2022-12-18T11:25:30;101792.91;;;-2.22;100.00
4022;BME280;2025;48.260;16.432;2022-12-18T11:28:00;101808.47;;;-2.21;100.00
4022;BME280;2025;48.260;16.432;2022-12-18T11:30:28;101805.72;;;-2.41;100.00
4022;BME280;2025;48.260;16.432;2022-12-18T11:33:00;101800.22;;;-2.54;100.00
4022;BME280;2025;48.260;16.432;2022-12-18T11:35:37;101799.50;;;-2.62;100.00
4022;BME280;2025;48.260;16.432;2022-12-18T11:38:16;101807.41;;;-2.42;100.00
4022;BME280;2025;48.260;16.432;2022-12-18T11:40:47;101800.00;;;-2.20;100.00
4022;BME280;2025;48.260;16.432;2022-12-18T11:43:22;101797.56;;;-2.18;100.00
4022;BME280;2025;48.260;16.432;2022-12-18T11:45:55;101796.81;;;-1.99;100.00
4022;BME280;2025;48.260;16.432;2022-12-18T11:48:27;101795.69;;;-1.92;100.00
4022;BME280;2025;48.260;16.432;2022-12-18T11:50:57;101787.38;;;-2.27;100.00
4022;BME280;2025;48.260;16.432;2022-12-18T11:53:27;101784.66;;;-1.91;100.00
4022;BME280;2025;48.260;16.432;2022-12-18T11:56:04;101776.53;;;-1.96;100.00
4022;BME280;2025;48.260;16.432;2022-12-18T11:58:47;101779.03;;;-2.06;100.00
4022;BME280;2025;48.260;16.432;2022-12-18T12:01:32;101778.00;;;-1.89;100.00
4022;BME280;2025;48.260;16.432;2022-12-18T12:04:17;101779.25;;;-1.94;100.00
4022;BME280;2025;48.260;16.432;2022-12-18T12:06:55;101789.72;;;-2.01;100.00
4022;BME280;2025;48.260;16.432;2022-12-18T12:09:30;101790.53;;;-2.48;100.00
4022;BME280;2025;48.260;16.432;2022-12-18T12:12:13;101785.38;;;-2.48;100.00
4022;BME280;2025;48.260;16.432;2022-12-18T12:14:49;101795.59;;;-2.40;100.00
4022;BME280;2025;48.260;16.432;2022-12-18T12:17:30;101791.03;;;-2.34;100.00
4022;BME280;2025;48.260;16.432;2022-12-18T12:20:08;101792.28;;;-2.20;100.00
4022;BME280;2025;48.260;16.432;2022-12-18T12:22:45;101780.56;;;-2.27;100.00
4022;BME280;2025;48.260;16.432;2022-12-18T12:25:29;101783.88;;;-2.46;100.00
4022;BME280;2025;48.260;16.432;2022-12-18T12:28:09;101778.50;;;-2.58;100.00
4022;BME280;2025;48.260;16.432;2022-12-18T12:30:47;101788.50;;;-2.61;100.00
4022;BME280;2025;48.260;16.432;2022-12-18T12:33:25;101784.53;;;-2.58;100.00
4022;BME280;2025;48.260;16.432;2022-12-18T12:36:06;101782.25;;;-2.54;100.00
4022;BME280;2025;48.260;16.432;2022-12-18T12:38:41;101779.56;;;-2.37;100.00
4022;BME280;2025;48.260;16.432;2022-12-18T12:41:14;101767.41;;;-2.48;100.00
4022;BME280;2025;48.260;16.432;2022-12-18T12:43:59;101762.94;;;-2.32;100.00
4022;BME280;2025;48.260;16.432;2022-12-18T12:46:31;101756.19;;;-2.40;100.00
4022;BME280;2025;48.260;16.432;2022-12-18T12:49:01;101751.63;;;-2.34;100.00
4022;BME280;2025;48.260;16.432;2022-12-18T12:51:33;101758.34;;;-2.26;100.00
4022;BME280;2025;48.260;16.432;2022-12-18T12:54:03;101765.78;;;-2.29;100.00
4022;BME280;2025;48.260;16.432;2022-12-18T12:56:37;101764.94;;;-2.38;100.00
4022;BME280;2025;48.260;16.432;2022-12-18T12:59:11;101765.00;;;-2.28;100.00
4022;BME280;2025;48.260;16.432;2022-12-18T13:01:46;101766.81;;;-2.27;100.00
4022;BME280;2025;48.260;16.432;2022-12-18T13:04:21;101762.59;;;-2.27;100.00
4022;BME280;2025;48.260;16.432;2022-12-18T13:06:57;101768.63;;;-2.26;100.00
4022;BME280;2025;48.260;16.432;2022-12-18T13:09:30;101765.00;;;-2.28;100.00
4022;BME280;2025;48.260;16.432;2022-12-18T13:12:04;101770.72;;;-2.22;100.00
4022;BME280;2025;48.260;16.432;2022-12-18T13:14:48;101771.81;;;-2.29;100.00
4022;BME280;2025;48.260;16.432;2022-12-18T13:17:27;101777.94;;;-2.18;100.00
4022;BME280;2025;48.260;16.432;2022-12-18T13:20:10;101779.94;;;-2.05;100.00
4022;BME280;2025;48.260;16.432;2022-12-18T13:22:42;101788.91;;;-2.10;100.00
4022;BME280;2025;48.260;16.432;2022-12-18T13:25:35;101790.22;;;-2.05;100.00
4022;BME280;2025;48.260;16.432;2022-12-18T13:28:08;101798.41;;;-2.09;100.00
4022;BME280;2025;48.260;16.432;2022-12-18T13:30:57;101799.38;;;-1.99;100.00
4022;BME280;2025;48.260;16.432;2022-12-18T13:33:42;101785.78;;;-2.16;100.00
4022;BME280;2025;48.260;16.432;2022-12-18T13:36:30;101778.75;;;-2.09;100.00
4022;BME280;2025;48.260;16.432;2022-12-18T13:41:41;101785.50;;;-2.19;100.00
4022;BME280;2025;48.260;16.432;2022-12-18T13:44:12;101779.44;;;-2.20;100.00
4022;BME280;2025;48.260;16.432;2022-12-18T13:46:44;101794.09;;;-2.19;100.00
4022;BME280;2025;48.260;16.432;2022-12-18T13:49:19;101794.38;;;-2.16;100.00
4022;BME280;2025;48.260;16.432;2022-12-18T13:51:48;101797.00;;;-2.24;100.00
4022;BME280;2025;48.260;16.432;2022-12-18T13:54:19;101800.97;;;-2.28;100.00
4022;BME280;2025;48.260;16.432;2022-12-18T13:56:49;101799.91;;;-2.30;100.00
4022;BME280;2025;48.260;16.432;2022-12-18T13:59:18;101797.91;;;-2.24;100.00
4022;BME280;2025;48.260;16.432;2022-12-18T14:01:48;101795.81;;;-2.28;100.00
4022;BME280;2025;48.260;16.432;2022-12-18T14:04:27;101802.16;;;-2.24;100.00
4022;BME280;2025;48.260;16.432;2022-12-18T14:06:57;101801.81;;;-2.19;100.00
4022;BME280;2025;48.260;16.432;2022-12-18T14:09:27;101794.72;;;-2.21;100.00
4022;BME280;2025;48.260;16.432;2022-12-18T14:11:57;101801.25;;;-2.25;100.00
4022;BME280;2025;48.260;16.432;2022-12-18T14:14:41;101798.13;;;-2.31;100.00
4022;BME280;2025;48.260;16.432;2022-12-18T14:17:09;101795.06;;;-2.27;100.00
4022;BME280;2025;48.260;16.432;2022-12-18T14:19:41;101807.28;;;-2.24;100.00
4022;BME280;2025;48.260;16.432;2022-12-18T14:22:15;101814.50;;;-2.20;100.00
4022;BME280;2025;48.260;16.432;2022-12-18T14:24:43;101816.88;;;-2.13;100.00
4022;BME280;2025;48.260;16.432;2022-12-18T14:27:25;101812.84;;;-2.20;100.00
4022;BME280;2025;48.260;16.432;2022-12-18T14:29:53;101809.38;;;-2.20;100.00
4022;BME280;2025;48.260;16.432;2022-12-18T14:32:21;101814.44;;;-2.12;100.00
4022;BME280;2025;48.260;16.432;2022-12-18T14:34:50;101815.34;;;-2.11;100.00
4022;BME280;2025;48.260;16.432;2022-12-18T14:37:21;101819.31;;;-2.15;100.00
4022;BME280;2025;48.260;16.432;2022-12-18T14:39:54;101822.84;;;-2.23;100.00
4022;BME280;2025;48.260;16.432;2022-12-18T14:42:24;101821.03;;;-2.24;100.00
4022;BME280;2025;48.260;16.432;2022-12-18T14:48:11;101816.19;;;-2.21;100.00
4022;BME280;2025;48.260;16.432;2022-12-18T14:50:40;101818.94;;;-2.28;100.00
4022;BME280;2025;48.260;16.432;2022-12-18T14:53:18;101828.78;;;-2.33;100.00
4022;BME280;2025;48.260;16.432;2022-12-18T14:55:48;101818.22;;;-2.36;100.00
4022;BME280;2025;48.260;16.432;2022-12-18T14:58:17;101815.81;;;-2.34;100.00
4022;BME280;2025;48.260;16.432;2022-12-18T15:00:45;101822.31;;;-2.38;100.00
4022;BME280;2025;48.260;16.432;2022-12-18T15:03:12;101832.44;;;-2.39;100.00
4022;BME280;2025;48.260;16.432;2022-12-18T15:05:44;101830.16;;;-2.36;100.00
4022;BME280;2025;48.260;16.432;2022-12-18T15:08:28;101840.31;;;-2.38;100.00
4022;BME280;2025;48.260;16.432;2022-12-18T15:10:55;101838.50;;;-2.39;100.00
4022;BME280;2025;48.260;16.432;2022-12-18T15:13:24;101823.22;;;-2.37;100.00
4022;BME280;2025;48.260;16.432;2022-12-18T15:15:52;101829.41;;;-2.35;100.00
4022;BME280;2025;48.260;16.432;2022-12-18T15:18:22;101823.50;;;-2.34;100.00
4022;BME280;2025;48.260;16.432;2022-12-18T15:20:54;101815.53;;;-2.37;100.00
4022;BME280;2025;48.260;16.432;2022-12-18T15:23:24;101830.38;;;-2.43;100.00
4022;BME280;2025;48.260;16.432;2022-12-18T15:25:58;101827.88;;;-2.33;100.00
4022;BME280;2025;48.260;16.432;2022-12-18T15:28:31;101815.53;;;-2.37;100.00
4022;BME280;2025;48.260;16.432;2022-12-18T15:34:09;101828.50;;;-2.36;100.00
4022;BME280;2025;48.260;16.432;2022-12-18T15:36:37;101823.66;;;-2.33;100.00
4022;BME280;2025;48.260;16.432;2022-12-18T15:39:04;101824.66;;;-2.49;100.00
4022;BME280;2025;48.260;16.432;2022-12-18T15:41:32;101820.81;;;-2.36;100.00
4022;BME280;2025;48.260;16.432;2022-12-18T15:44:21;101811.63;;;-2.42;100.00
4022;BME280;2025;48.260;16.432;2022-12-18T15:46:48;101805.25;;;-2.37;100.00
4022;BME280;2025;48.260;16.432;2022-12-18T15:49:14;101804.56;;;-2.26;100.00
4022;BME280;2025;48.260;16.432;2022-12-18T15:51:41;101806.00;;;-2.38;100.00
4022;BME280;2025;48.260;16.432;2022-12-18T15:54:12;101810.06;;;-2.32;100.00
4022;BME280;2025;48.260;16.432;2022-12-18T15:56:41;101814.72;;;-2.28;100.00
4022;BME280;2025;48.260;16.432;2022-12-18T15:59:27;101824.63;;;-2.22;100.00
4022;BME280;2025;48.260;16.432;2022-12-18T16:01:54;101832.50;;;-2.20;100.00
4022;BME280;2025;48.260;16.432;2022-12-18T16:04:22;101819.03;;;-2.18;100.00
4022;BME280;2025;48.260;16.432;2022-12-18T16:06:50;101826.59;;;-2.19;100.00
4022;BME280;2025;48.260;16.432;2022-12-18T16:09:18;101834.91;;;-2.22;100.00
4022;BME280;2025;48.260;16.432;2022-12-18T16:11:45;101828.13;;;-2.21;100.00
4022;BME280;2025;48.260;16.432;2022-12-18T16:14:16;101833.19;;;-2.13;100.00
4022;BME280;2025;48.260;16.432;2022-12-18T16:16:46;101841.47;;;-2.07;100.00
4022;BME280;2025;48.260;16.432;2022-12-18T16:19:13;101839.66;;;-2.08;100.00
4022;BME280;2025;48.260;16.432;2022-12-18T16:21:42;101837.66;;;-2.02;100.00
4022;BME280;2025;48.260;16.432;2022-12-18T16:24:13;101839.16;;;-2.04;100.00
4022;BME280;2025;48.260;16.432;2022-12-18T16:26:41;101831.47;;;-2.04;100.00
4022;BME280;2025;48.260;16.432;2022-12-18T16:29:08;101832.16;;;-1.96;100.00
4022;BME280;2025;48.260;16.432;2022-12-18T16:31:36;101829.72;;;-1.95;100.00
4022;BME280;2025;48.260;16.432;2022-12-18T16:34:15;101837.72;;;-1.91;100.00
4022;BME280;2025;48.260;16.432;2022-12-18T16:36:46;101837.78;;;-2.00;100.00
4022;BME280;2025;48.260;16.432;2022-12-18T16:39:13;101835.44;;;-1.88;100.00
4022;BME280;2025;48.260;16.432;2022-12-18T16:41:40;101826.41;;;-1.94;100.00
4022;BME280;2025;48.260;16.432;2022-12-18T16:44:07;101827.94;;;-1.96;100.00
4022;BME280;2025;48.260;16.432;2022-12-18T16:46:35;101824.38;;;-1.87;100.00
4022;BME280;2025;48.260;16.432;2022-12-18T16:49:02;101822.22;;;-1.83;100.00
4022;BME280;2025;48.260;16.432;2022-12-18T16:51:33;101825.28;;;-1.87;100.00
4022;BME280;2025;48.260;16.432;2022-12-18T16:54:01;101823.47;;;-1.88;100.00
4022;BME280;2025;48.260;16.432;2022-12-18T16:56:28;101822.38;;;-1.81;100.00
4022;BME280;2025;48.260;16.432;2022-12-18T16:58:56;101813.34;;;-1.86;100.00
4022;BME280;2025;48.260;16.432;2022-12-18T17:01:24;101812.56;;;-1.85;100.00
4022;BME280;2025;48.260;16.432;2022-12-18T17:03:52;101816.94;;;-1.84;100.00
4022;BME280;2025;48.260;16.432;2022-12-18T17:06:19;101820.56;;;-1.82;100.00
4022;BME280;2025;48.260;16.432;2022-12-18T17:08:54;101827.78;;;-1.78;100.00
4022;BME280;2025;48.260;16.432;2022-12-18T17:11:21;101825.72;;;-1.82;100.00
4022;BME280;2025;48.260;16.432;2022-12-18T17:13:47;101824.44;;;-1.77;100.00
4022;BME280;2025;48.260;16.432;2022-12-18T17:16:14;101813.75;;;-1.82;100.00
4022;BME280;2025;48.260;16.432;2022-12-18T17:18:42;101818.91;;;-1.82;100.00
4022;BME280;2025;48.260;16.432;2022-12-18T17:21:10;101826.56;;;-1.73;100.00
4022;BME280;2025;48.260;16.432;2022-12-18T17:23:39;101816.47;;;-1.80;100.00
4022;BME280;2025;48.260;16.432;2022-12-18T17:26:08;101806.59;;;-1.76;100.00
4022;BME280;2025;48.260;16.432;2022-12-18T17:28:37;101809.66;;;-1.80;100.00
4022;BME280;2025;48.260;16.432;2022-12-18T17:31:10;101808.00;;;-1.79;100.00
4022;BME280;2025;48.260;16.432;2022-12-18T17:33:37;101808.84;;;-1.89;100.00
4022;BME280;2025;48.260;16.432;2022-12-18T17:36:04;101813.97;;;-1.89;100.00
4022;BME280;2025;48.260;16.432;2022-12-18T17:38:31;101813.19;;;-1.88;100.00
4022;BME280;2025;48.260;16.432;2022-12-18T17:41:00;101822.38;;;-1.81;100.00
4022;BME280;2025;48.260;16.432;2022-12-18T17:43:29;101825.91;;;-1.89;100.00
4022;BME280;2025;48.260;16.432;2022-12-18T17:46:00;101824.44;;;-1.77;100.00
4022;BME280;2025;48.260;16.432;2022-12-18T17:48:28;101818.00;;;-1.82;100.00
4022;BME280;2025;48.260;16.432;2022-12-18T17:51:00;101817.38;;;-1.80;100.00
4022;BME280;2025;48.260;16.432;2022-12-18T17:53:27;101822.22;;;-1.83;100.00
4022;BME280;2025;48.260;16.432;2022-12-18T17:55:54;101813.28;;;-1.78;100.00
4022;BME280;2025;48.260;16.432;2022-12-18T17:58:22;101813.63;;;-1.83;100.00
4022;BME280;2025;48.260;16.432;2022-12-18T18:00:51;101818.00;;;-1.82;100.00
4022;BME280;2025;48.260;16.432;2022-12-18T18:03:18;101804.66;;;-1.78;100.00
4022;BME280;2025;48.260;16.432;2022-12-18T18:05:45;101806.47;;;-1.77;100.00
4022;BME280;2025;48.260;16.432;2022-12-18T18:08:12;101805.16;;;-1.82;100.00
4022;BME280;2025;48.260;16.432;2022-12-18T18:10:39;101806.59;;;-1.76;100.00
4022;BME280;2025;48.260;16.432;2022-12-18T18:13:17;101806.59;;;-1.76;100.00
4022;BME280;2025;48.260;16.432;2022-12-18T18:16:04;101811.84;;;-1.66;100.00
4022;BME280;2025;48.260;16.432;2022-12-18T18:18:31;101816.56;;;-1.70;100.00
4022;BME280;2025;48.260;16.432;2022-12-18T18:20:59;101811.28;;;-1.72;100.00
4022;BME280;2025;48.260;16.432;2022-12-18T18:23:30;101819.91;;;-1.71;100.00
4022;BME280;2025;48.260;16.432;2022-12-18T18:26:01;101810.66;;;-1.69;100.00
4022;BME280;2025;48.260;16.432;2022-12-18T18:28:28;101813.72;;;-1.73;100.00
4022;BME280;2025;48.260;16.432;2022-12-18T18:30:55;101810.53;;;-1.71;100.00
4022;BME280;2025;48.260;16.432;2022-12-18T18:33:24;101799.47;;;-1.70;100.00
4022;BME280;2025;48.260;16.432;2022-12-18T18:35:51;101801.13;;;-1.70;100.00
4022;BME280;2025;48.260;16.432;2022-12-18T18:38:18;101793.84;;;-1.66;100.00
4022;BME280;2025;48.260;16.432;2022-12-18T18:40:45;101795.50;;;-1.66;100.00
4022;BME280;2025;48.260;16.432;2022-12-18T18:43:12;101801.69;;;-1.64;100.00
4022;BME280;2025;48.260;16.432;2022-12-18T18:45:39;101803.63;;;-1.62;100.00
4022;BME280;2025;48.260;16.432;2022-12-18T18:48:06;101803.00;;;-1.59;100.00
4022;BME280;2025;48.260;16.432;2022-12-18T18:50:34;101804.03;;;-1.57;100.00
4022;BME280;2025;48.260;16.432;2022-12-18T18:53:01;101806.47;;;-1.58;100.00
4022;BME280;2025;48.260;16.432;2022-12-18T18:55:28;101800.97;;;-1.53;100.00
4022;BME280;2025;48.260;16.432;2022-12-18T18:57:55;101799.84;;;-1.46;100.00
4022;BME280;2025;48.260;16.432;2022-12-18T19:00:21;101802.56;;;-1.45;100.00
4022;BME280;2025;48.260;16.432;2022-12-18T19:02:49;101809.09;;;-1.48;100.00
4022;BME280;2025;48.260;16.432;2022-12-18T19:05:16;101800.88;;;-1.44;100.00
4022;BME280;2025;48.260;16.432;2022-12-18T19:07:44;101793.94;;;-1.45;100.00
4022;BME280;2025;48.260;16.432;2022-12-18T19:10:11;101789.03;;;-1.52;100.00
4022;BME280;2025;48.260;16.432;2022-12-18T19:12:38;101788.88;;;-1.54;100.00
4022;BME280;2025;48.260;16.432;2022-12-18T19:15:22;101784.50;;;-1.55;100.00
4022;BME280;2025;48.260;16.432;2022-12-18T19:17:49;101769.72;;;-1.57;100.00
4022;BME280;2025;48.260;16.432;2022-12-18T19:20:16;101786.44;;;-1.52;100.00
4022;BME280;2025;48.260;16.432;2022-12-18T19:22:45;101772.97;;;-1.50;100.00
4022;BME280;2025;48.260;16.432;2022-12-18T19:25:12;101780.19;;;-1.46;100.00
4022;BME280;2025;48.260;16.432;2022-12-18T19:27:39;101781.47;;;-1.41;100.00
4022;BME280;2025;48.260;16.432;2022-12-18T19:30:06;101776.63;;;-1.38;100.00
4022;BME280;2025;48.260;16.432;2022-12-18T19:32:33;101773.63;;;-1.42;100.00
4022;BME280;2025;48.260;16.432;2022-12-18T19:35:00;101768.41;;;-1.34;100.00
4022;BME280;2025;48.260;16.432;2022-12-18T19:37:27;101772.00;;;-1.32;100.00
4022;BME280;2025;48.260;16.432;2022-12-18T19:39:56;101768.53;;;-1.32;100.00
4022;BME280;2025;48.260;16.432;2022-12-18T19:42:23;101768.81;;;-1.29;100.00
4022;BME280;2025;48.260;16.432;2022-12-18T19:44:50;101767.66;;;-1.22;100.00
4022;BME280;2025;48.260;16.432;2022-12-18T19:47:16;101781.84;;;-1.17;100.00
4022;BME280;2025;48.260;16.432;2022-12-18T19:49:43;101779.66;;;-1.13;100.00
4022;BME280;2025;48.260;16.432;2022-12-18T19:52:10;101785.44;;;-1.15;100.00
4022;BME280;2025;48.260;16.432;2022-12-18T19:54:39;101780.03;;;-1.18;100.00
4022;BME280;2025;48.260;16.432;2022-12-18T19:57:07;101782.72;;;-1.17;100.00
4022;BME280;2025;48.260;16.432;2022-12-18T19:59:36;101783.91;;;-1.13;100.00
4022;BME280;2025;48.260;16.432;2022-12-18T20:02:03;101782.38;;;-1.11;100.00
4022;BME280;2025;48.260;16.432;2022-12-18T20:04:30;101781.59;;;-1.10;100.00
4022;BME280;2025;48.260;16.432;2022-12-18T20:06:57;101782.88;;;-1.15;100.00
4022;BME280;2025;48.260;16.432;2022-12-18T20:09:24;101777.22;;;-1.11;100.00
4022;BME280;2025;48.260;16.432;2022-12-18T20:11:51;101777.22;;;-1.11;100.00
4022;BME280;2025;48.260;16.432;2022-12-18T20:14:19;101773.75;;;-1.12;100.00
4022;BME280;2025;48.260;16.432;2022-12-18T20:16:46;101764.22;;;-1.13;100.00
4022;BME280;2025;48.260;16.432;2022-12-18T20:19:13;101771.44;;;-1.09;100.00
4022;BME280;2025;48.260;16.432;2022-12-18T20:21:40;101767.63;;;-0.93;100.00
4022;BME280;2025;48.260;16.432;2022-12-18T20:24:07;101770.78;;;-1.06;100.00
4022;BME280;2025;48.260;16.432;2022-12-18T20:26:34;101767.47;;;-1.05;100.00
4022;BME280;2025;48.260;16.432;2022-12-18T20:29:01;101767.09;;;-1.00;100.00
4022;BME280;2025;48.260;16.432;2022-12-18T20:31:30;101768.13;;;-0.98;100.00
4022;BME280;2025;48.260;16.432;2022-12-18T20:33:57;101772.38;;;-0.98;100.00
4022;BME280;2025;48.260;16.432;2022-12-18T20:36:24;101777.28;;;-0.91;100.00
4022;BME280;2025;48.260;16.432;2022-12-18T20:38:51;101772.00;;;-0.92;100.00
4022;BME280;2025;48.260;16.432;2022-12-18T20:41:21;101768.78;;;-0.90;100.00
4022;BME280;2025;48.260;16.432;2022-12-18T20:43:49;101778.44;;;-0.87;100.00
4022;BME280;2025;48.260;16.432;2022-12-18T20:46:16;101773.41;;;-0.86;100.00
4022;BME280;2025;48.260;16.432;2022-12-18T20:48:45;101776.25;;;-0.83;100.00
4022;BME280;2025;48.260;16.432;2022-12-18T20:51:15;101778.31;;;-0.79;100.00
4022;BME280;2025;48.260;16.432;2022-12-18T20:53:43;101769.19;;;-0.75;100.00
4022;BME280;2025;48.260;16.432;2022-12-18T20:56:11;101773.44;;;-0.76;100.00
4022;BME280;2025;48.260;16.432;2022-12-18T20:58:38;101761.72;;;-0.72;100.00
4022;BME280;2025;48.260;16.432;2022-12-18T21:01:07;101759.78;;;-0.75;100.00
4022;BME280;2025;48.260;16.432;2022-12-18T21:03:35;101771.25;;;-0.71;100.00
4022;BME280;2025;48.260;16.432;2022-12-18T21:06:04;101760.06;;;-0.72;100.00
4022;BME280;2025;48.260;16.432;2022-12-18T21:08:31;101762.38;;;-0.75;100.00
4022;BME280;2025;48.260;16.432;2022-12-18T21:11:11;101762.13;;;-0.68;100.00
4022;BME280;2025;48.260;16.432;2022-12-18T21:13:59;101778.97;;;-0.71;100.00
4022;BME280;2025;48.260;16.432;2022-12-18T21:16:26;101768.03;;;-0.79;100.00
4022;BME280;2025;48.260;16.432;2022-12-18T21:18:52;101776.00;;;-0.76;100.00
4022;BME280;2025;48.260;16.432;2022-12-18T21:21:21;101771.63;;;-0.77;100.00
4022;BME280;2025;48.260;16.432;2022-12-18T21:23:48;101763.78;;;-0.78;100.00
4022;BME280;2025;48.260;16.432;2022-12-18T21:26:17;101758.75;;;-0.77;100.00
4022;BME280;2025;48.260;16.432;2022-12-18T21:28:44;101758.63;;;-0.78;100.00
4022;BME280;2025;48.260;16.432;2022-12-18T21:31:11;101750.00;;;-0.79;100.00
4022;BME280;2025;48.260;16.432;2022-12-18T21:33:38;101751.78;;;-0.88;100.00
4022;BME280;2025;48.260;16.432;2022-12-18T21:36:06;101755.03;;;-0.80;100.00
4022;BME280;2025;48.260;16.432;2022-12-18T21:38:35;101744.34;;;-0.85;100.00
4022;BME280;2025;48.260;16.432;2022-12-18T21:41:05;101741.38;;;-0.89;100.00
4022;BME280;2025;48.260;16.432;2022-12-18T21:43:32;101744.44;;;-0.93;100.00
4022;BME280;2025;48.260;16.432;2022-12-18T21:46:16;101734.28;;;-1.02;100.00
4022;BME280;2025;48.260;16.432;2022-12-18T21:48:43;101730.41;;;-1.07;100.00
4022;BME280;2025;48.260;16.432;2022-12-18T21:51:10;101729.84;;;-1.23;100.00
4022;BME280;2025;48.260;16.432;2022-12-18T21:53:38;101735.25;;;-1.20;100.00
4022;BME280;2025;48.260;16.432;2022-12-18T21:56:05;101736.00;;;-1.32;100.00
4022;BME280;2025;48.260;16.432;2022-12-18T21:58:32;101726.72;;;-1.40;100.00
4022;BME280;2025;48.260;16.432;2022-12-18T22:00:59;101739.56;;;-1.40;100.00
4022;BME280;2025;48.260;16.432;2022-12-18T22:03:26;101733.50;;;-1.50;100.00
4022;BME280;2025;48.260;16.432;2022-12-18T22:05:56;101733.09;;;-1.55;100.00
4022;BME280;2025;48.260;16.432;2022-12-18T22:08:23;101713.75;;;-1.70;100.00
4022;BME280;2025;48.260;16.432;2022-12-18T22:10:51;101714.50;;;-1.71;100.00
4022;BME280;2025;48.260;16.432;2022-12-18T22:13:18;101704.22;;;-1.71;100.00